Reedsville, WV (26547)

7:28 PM EST on November 23, 2014 (GMT -0500)
Herring Road | Change Station
CLOSE
Current Station
Personal Weather Station
Location: Kingwood, WV
Elevation: 2200 ft
Nearby Weather Stations
Active Advisory: Wind Advisory

Elev 2200 ft 39.52 °N, 79.73 °W | Updated 13 minutes ago

Overcast
Overcast
54.6 °F
Feels Like 54.6 °F
N
10.0
Wind Variable Wind from ESE
Gusts 18.0 mph

Today
High -- | Low -- °F
--% Chance of Precip.
Yesterday
High -- | Low -- °F
Precip. -- in
7:12 AM 4:58 PM
Waxing Crescent, 3% visible
Pressure 29.78 in
Visibility 10.0 miles
Clouds Few 8000 ft
Scattered Clouds 10000 ft
Scattered Clouds 12000 ft
Dew Point 46 °F
Humidity 73%
Rainfall 0.00 in
Snow Depth Not available.
UV 0.0 out of 12
Pollen .10 out of 12
Air Quality Not available.
Flu Activity Not available.
METAR KMGW 232353Z 15012KT 10SM FEW080 SCT100 SCT120 15/04 A2978 RMK AO2 SLP082 T01500039 10183 20150 58031

More Conditions Fewer Conditions

Pressure 29.78 in
Visibility 10.0 miles
Clouds Few 8000 ft
Scattered Clouds 10000 ft
Scattered Clouds 12000 ft
Dew Point 46 °F
Humidity 73%
Rainfall 0.00 in
Snow Depth Not available.
UV 0.0 out of 12
Pollen .10 out of 12
Air Quality Not available.
Flu Activity Not available.
METAR KMGW 232353Z 15012KT 10SM FEW080 SCT100 SCT120 15/04 A2978 RMK AO2 SLP082 T01500039 10183 20150 58031

More Conditions Fewer Conditions

10-Day Weather Forecast

Almanac

Astronomy

Nov. 23, 2014 Rise Set
Actual Time
Civil Twilight
Nautical Twilight
Astronomical Twilight
Moon
Length of Visible Light
Length of Day
Tomorrow will be .
, % of the Moon is Illuminated

Today's Extremes

State Highs State Lows

Community

WunderPhotos

Upload Photos

1,773,219 photos uploaded!

WunderBlogs® & News

Nearby

Air Quality

  Air Quality AQ Index Pollutant
Not available.

Snow Depth

Station Depth Elevation

Earthquake Activity

City Distance Mag. Time & Date
Minimum magnitude displayed is 2.5.

Coastal Water Temperatures

Place Temperature

Nearby Weather Stations